Point Vicente — WDB9763 — position and weather

sailwx.info

Track history (hours):
 
Tides and Currents Weather Stations Pressure Air Temp Water Temp Dewpoint Dewpoint Depression Visibility Wind Speed Wind Dir Waves Ship Positions

Point Vicente

Owner: Foss Maritime Company, Seattle, WA. More information available from US FCC via Universal Licensing System and Coast Guard Vessel Documentation Center.

Last reported at 2016-May-31 11:33 UTC. Time now 2016-May-31 12:05 UTC.
Position N 37°55' W 122°22'.

Length 32 m; draft 4.3 m.

Type: Tug. MMSI: 366982330.

Date/timePositionNaut miles runAvg speedWind from/ knotsBaromVisibWave heightAir tempDewpointWater temp
2016-May-31 11:33N 37°55' W 122°22'5 4.8
2016-May-31 10:33N 37°50' W 122°22'3 3.1
2016-May-31 09:33N 37°48' W 122°19'0 0.0
2016-May-31 08:33N 37°48' W 122°19'0 0.0
2016-May-31 07:33N 37°48' W 122°19'0 0.0
2016-May-31 06:33N 37°48' W 122°19'2 0.8
2016-May-31 04:33N 37°48' W 122°21'7 6.5
2016-May-31 03:32N 37°54' W 122°24'0 0.1
2016-May-30 20:20N 37°54' W 122°24'810.3
2016-May-30 19:34N 37°46' W 122°22'1 0.7
2016-May-30 18:34N 37°46' W 122°22'1 0.7
2016-May-30 17:27N 37°46' W 122°22'0 0.1
2016-May-30 16:33N 37°46' W 122°21'0 0.0
2016-May-30 15:33N 37°46' W 122°21'0 0.1
2016-May-30 14:30N 37°46' W 122°21'0 0.0
2016-May-30 13:33N 37°46' W 122°21'1 1.5
2016-May-30 12:34N 37°45' W 122°23'0 0.2
2016-May-30 11:34N 37°45' W 122°23'6 6.4
2016-May-30 10:34N 37°51' W 122°24'4 0.4
2016-May-29 22:33N 37°55' W 122°25'3 3.2
2016-May-29 21:33N 37°52' W 122°24'1 0.5
2016-May-29 19:33N 37°52' W 122°23'3 0.7
2016-May-29 15:32N 37°54' W 122°22'0 0.0
2016-May-29 14:33N 37°54' W 122°22'0 0.0
2016-May-29 13:33N 37°54' W 122°22'0 0.0
2016-May-29 12:33N 37°54' W 122°22'0 0.0
2016-May-29 11:33N 37°54' W 122°22'0 0.0
2016-May-29 10:33N 37°54' W 122°22'0 0.0
2016-May-29 08:32N 37°54' W 122°22'0 0.0
2016-May-29 07:33N 37°54' W 122°22'0 0.0
2016-May-29 06:33N 37°54' W 122°22'0 0.0
2016-May-29 05:33N 37°54' W 122°22'0 0.0
2016-May-29 03:33N 37°54' W 122°22'0 0.0
2016-May-29 02:33N 37°54' W 122°22'0 0.0
2016-May-29 01:33N 37°54' W 122°22'0 0.0
2016-May-29 00:33N 37°54' W 122°22'0 0.0
2016-May-28 23:33N 37°54' W 122°22'0 0.0
2016-May-28 22:33N 37°54' W 122°22'0 0.0
2016-May-28 21:33N 37°54' W 122°22'0 0.0
2016-May-28 20:33N 37°54' W 122°22'0 0.0
2016-May-28 17:28N 37°54' W 122°22'0 0.0
2016-May-28 16:33N 37°54' W 122°22'0 0.0
2016-May-28 15:33N 37°54' W 122°22'0 0.0
2016-May-28 14:33N 37°54' W 122°22'0 0.0
2016-May-28 13:34N 37°54' W 122°22'0 0.0
2016-May-28 12:33N 37°54' W 122°22'0 0.0
2016-May-28 11:33N 37°54' W 122°22'0 0.0
2016-May-28 10:32N 37°54' W 122°22'0 0.0
2016-May-28 09:33N 37°54' W 122°22'0 0.0
2016-May-28 08:33N 37°54' W 122°22'0 0.0
2016-May-28 07:33N 37°54' W 122°22'2 0.2
2016-May-27 23:33N 37°54' W 122°25'7 7.1
2016-May-27 22:33N 37°47' W 122°22'2 2.3
2016-May-27 21:33N 37°45' W 122°20'0 0.0
2016-May-27 20:33N 37°45' W 122°20'0 0.0
2016-May-27 19:33N 37°45' W 122°20'0 0.1
2016-May-27 18:22N 37°46' W 122°20'0 0.1
2016-May-27 14:31N 37°46' W 122°20'5 4.6
2016-May-27 13:31N 37°50' W 122°23'5 0.3
2016-May-26 23:16N 37°54' W 122°24'5 5.8
2016-May-26 22:20N 37°49' W 122°22'5 5.9
2016-May-26 21:34N 37°45' W 122°20'2 1.9
2016-May-26 20:33N 37°43' W 122°19'0 0.0
2016-May-26 19:33N 37°43' W 122°19'0 0.0
2016-May-26 18:33N 37°43' W 122°19'0 0.2
2016-May-26 17:30N 37°43' W 122°19'0 0.1
2016-May-26 16:34N 37°43' W 122°19'0 0.0
2016-May-26 15:33N 37°43' W 122°19'4 3.5
2016-May-26 14:34N 37°46' W 122°21'6 5.6
2016-May-26 13:33N 37°52' W 122°24'4 4.0
2016-May-26 12:33N 37°55' W 122°22'1 0.9
2016-May-26 11:33N 37°54' W 122°22'0 0.0
2016-May-26 10:34N 37°54' W 122°22'0 0.0
2016-May-26 09:34N 37°54' W 122°22'0 0.0
2016-May-26 08:34N 37°54' W 122°22'0 0.0
2016-May-26 07:33N 37°54' W 122°22'0 0.0
2016-May-26 06:33N 37°54' W 122°22'0 0.0
2016-May-26 05:33N 37°54' W 122°22'0 0.0
2016-May-26 04:33N 37°54' W 122°22'0 0.0
2016-May-26 03:34N 37°54' W 122°22'0 0.0
2016-May-26 02:33N 37°54' W 122°22'0 0.0
2016-May-26 01:34N 37°54' W 122°22'0 0.1
2016-May-26 00:34N 37°54' W 122°22'2 1.8
2016-May-25 23:33N 37°54' W 122°25'3 3.1
2016-May-25 22:34N 37°51' W 122°23'5 5.1
2016-May-25 21:33N 37°48' W 122°19'1 0.8
2016-May-25 20:33N 37°48' W 122°18'0 0.0
2016-May-25 19:34N 37°48' W 122°18'0 0.0
2016-May-25 18:34N 37°48' W 122°18'0 0.0
2016-May-25 17:34N 37°48' W 122°18'5 5.2
2016-May-25 16:34N 37°51' W 122°23'4 4.3
2016-May-25 15:33N 37°55' W 122°22'0 0.0
2016-May-25 14:33N 37°55' W 122°22'0 0.0
2016-May-25 13:33N 37°55' W 122°22'0 0.0
2016-May-25 12:34N 37°55' W 122°22'0 0.0
2016-May-25 11:34N 37°55' W 122°22'0 0.0
2016-May-25 10:33N 37°55' W 122°22'0 0.0
2016-May-25 09:33N 37°55' W 122°22'0 0.1
2016-May-25 08:33N 37°55' W 122°22'1 0.9
2016-May-25 07:34N 37°54' W 122°22'1 0.9
2016-May-25 06:34N 37°55' W 122°22'0 0.0
2016-May-25 05:33N 37°55' W 122°22'0 0.0
2016-May-25 04:34N 37°55' W 122°22'0 0.4
2016-May-25 03:33N 37°55' W 122°22'1 0.6
2016-May-25 02:33N 37°54' W 122°22'0 0.4
2016-May-25 01:33N 37°54' W 122°22'0 0.0
2016-May-25 00:30N 37°54' W 122°22'0 0.0
2016-May-24 23:30N 37°54' W 122°22'0 0.0
2016-May-24 22:30N 37°54' W 122°22'0 0.0
2016-May-24 21:33N 37°54' W 122°22'0 0.0
2016-May-24 20:33N 37°54' W 122°22'0 0.0
2016-May-24 19:33N 37°54' W 122°22'0 0.0
2016-May-24 18:30N 37°54' W 122°22'2 2.3
2016-May-24 17:33N 37°55' W 122°25'2 2.1
2016-May-24 16:34N 37°55' W 122°22'2 1.9
2016-May-24 15:33N 37°54' W 122°24'1 0.5
2016-May-24 14:34N 37°54' W 122°24'2 1.6
2016-May-24 13:33N 37°55' W 122°22'1 0.7
2016-May-24 12:33N 37°54' W 122°22'0 0.4
2016-May-24 11:34N 37°54' W 122°22'0 0.0
2016-May-24 10:33N 37°54' W 122°22'1 0.8
2016-May-24 09:33N 37°55' W 122°22'5 5.4
2016-May-24 08:33N 37°50' W 122°23'4 4.1
2016-May-24 07:33N 37°46' W 122°21'0 0.0
2016-May-24 06:33N 37°46' W 122°21'0 0.0
2016-May-24 05:33N 37°46' W 122°21'0 0.0
2016-May-24 04:34N 37°46' W 122°21'0 0.1
2016-May-24 03:34N 37°46' W 122°21'0 0.1
2016-May-24 02:34N 37°46' W 122°21'0 0.0
2016-May-24 01:33N 37°46' W 122°21'3 2.8
2016-May-24 00:33N 37°48' W 122°18'0 0.1
2016-May-23 23:33N 37°48' W 122°18'0 0.0
2016-May-23 22:33N 37°48' W 122°18'0 0.0
2016-May-23 21:33N 37°48' W 122°18'0 0.0
2016-May-23 20:33N 37°48' W 122°18'0 0.0
2016-May-23 19:33N 37°48' W 122°18'0 0.0
2016-May-23 18:33N 37°48' W 122°18'0 0.0
2016-May-23 17:34N 37°48' W 122°18'2 2.3
2016-May-23 16:33N 37°48' W 122°21'5 4.5
2016-May-23 15:33N 37°52' W 122°24'3 3.4
2016-May-23 14:33N 37°55' W 122°22'1 0.8
2016-May-23 13:34N 37°54' W 122°22'0 0.0
2016-May-23 12:33N 37°54' W 122°22'0 0.0
2016-May-23 11:34N 37°54' W 122°22'0 0.0
2016-May-23 10:33N 37°54' W 122°22'0 0.0
2016-May-23 09:33N 37°54' W 122°22'0 0.0
2016-May-23 08:33N 37°54' W 122°22'0 0.0
2016-May-23 07:33N 37°54' W 122°22'0 0.0
2016-May-23 06:33N 37°54' W 122°22'0 0.0
2016-May-23 05:33N 37°54' W 122°22'0 0.0
2016-May-23 04:33N 37°54' W 122°22'0 0.0
2016-May-23 03:33N 37°54' W 122°22'1 0.9
2016-May-23 02:33N 37°55' W 122°22'2 2.0
2016-May-23 01:34N 37°54' W 122°24'6 6.2
2016-May-23 00:34N 37°49' W 122°20'0 0.0
2016-May-22 23:31N 37°49' W 122°20'0 0.0
2016-May-22 22:31N 37°49' W 122°20'0 0.0
2016-May-22 21:28N 37°49' W 122°20'0 0.0
2016-May-22 20:31N 37°49' W 122°20'0 0.0
2016-May-22 19:33N 37°49' W 122°20'6 5.7
2016-May-22 18:33N 37°53' W 122°24'2 2.4
2016-May-22 17:33N 37°55' W 122°22'3 2.5
2016-May-22 16:33N 37°56' W 122°25'3 2.5
2016-May-22 15:33N 37°54' W 122°22'2 1.9
2016-May-22 14:33N 37°54' W 122°25'6 6.2
2016-May-22 13:33N 37°48' W 122°21'2 1.8
2016-May-22 12:33N 37°46' W 122°21'0 0.0
2016-May-22 11:33N 37°46' W 122°21'0 0.0
2016-May-22 10:33N 37°46' W 122°21'0 0.1
2016-May-22 09:33N 37°46' W 122°21'0 0.1
2016-May-22 08:33N 37°46' W 122°21'0 0.2
2016-May-22 07:33N 37°46' W 122°21'0 0.0
2016-May-22 06:33N 37°46' W 122°21'0 0.1
2016-May-22 05:33N 37°46' W 122°21'4 4.1
2016-May-22 04:33N 37°50' W 122°23'5 4.6
2016-May-22 03:33N 37°54' W 122°23'1 0.8
2016-May-22 02:33N 37°54' W 122°22'0 0.0
2016-May-22 01:33N 37°54' W 122°22'0 0.0
2016-May-22 00:33N 37°54' W 122°22'0 0.0
2016-May-21 23:33N 37°54' W 122°22'0 0.0
2016-May-21 22:33N 37°54' W 122°22'0 0.0
2016-May-21 21:33N 37°54' W 122°22'1 0.7
2016-May-21 20:33N 37°55' W 122°22'0 0.3
2016-May-21 19:33N 37°54' W 122°22'0 0.0
2016-May-21 18:33N 37°54' W 122°22'0 0.0
2016-May-21 17:33N 37°54' W 122°22'0 0.0
2016-May-21 16:33N 37°54' W 122°22'0 0.0
2016-May-21 15:33N 37°54' W 122°22'0 0.2
2016-May-21 14:34N 37°54' W 122°22'0 0.2
2016-May-21 13:33N 37°54' W 122°22'1 1.4
2016-May-21 12:33N 37°54' W 122°24'1 1.0
2016-May-21 11:33N 37°54' W 122°22'  
Track history (hours):
 
Tides and Currents Weather Stations Pressure Air Temp Water Temp Dewpoint Dewpoint Depression Visibility Wind Speed Wind Dir Waves Ship Positions

Point Vicente

Owner: Foss Maritime Company, Seattle, WA. More information available from US FCC via Universal Licensing System and Coast Guard Vessel Documentation Center.

Last reported at 2016-May-31 11:33 UTC. Time now 2016-May-31 12:05 UTC.
Position N 37°55' W 122°22'.

Length 32 m; draft 4.3 m.

Type: Tug. MMSI: 366982330.

Date/timePositionNaut miles runAvg speedWind from/ knotsBaromVisibWave heightAir tempDewpointWater temp
2016-May-31 11:33N 37°55' W 122°22'5 4.8
2016-May-31 10:33N 37°50' W 122°22'3 3.1
2016-May-31 09:33N 37°48' W 122°19'0 0.0
2016-May-31 08:33N 37°48' W 122°19'0 0.0
2016-May-31 07:33N 37°48' W 122°19'0 0.0
2016-May-31 06:33N 37°48' W 122°19'2 0.8
2016-May-31 04:33N 37°48' W 122°21'7 6.5
2016-May-31 03:32N 37°54' W 122°24'0 0.1
2016-May-30 20:20N 37°54' W 122°24'810.3
2016-May-30 19:34N 37°46' W 122°22'1 0.7
2016-May-30 18:34N 37°46' W 122°22'1 0.7
2016-May-30 17:27N 37°46' W 122°22'0 0.1
2016-May-30 16:33N 37°46' W 122°21'0 0.0
2016-May-30 15:33N 37°46' W 122°21'0 0.1
2016-May-30 14:30N 37°46' W 122°21'0 0.0
2016-May-30 13:33N 37°46' W 122°21'1 1.5
2016-May-30 12:34N 37°45' W 122°23'0 0.2
2016-May-30 11:34N 37°45' W 122°23'6 6.4
2016-May-30 10:34N 37°51' W 122°24'4 0.4
2016-May-29 22:33N 37°55' W 122°25'3 3.2
2016-May-29 21:33N 37°52' W 122°24'1 0.5
2016-May-29 19:33N 37°52' W 122°23'3 0.7
2016-May-29 15:32N 37°54' W 122°22'0 0.0
2016-May-29 14:33N 37°54' W 122°22'0 0.0
2016-May-29 13:33N 37°54' W 122°22'0 0.0
2016-May-29 12:33N 37°54' W 122°22'0 0.0
2016-May-29 11:33N 37°54' W 122°22'0 0.0
2016-May-29 10:33N 37°54' W 122°22'0 0.0
2016-May-29 08:32N 37°54' W 122°22'0 0.0
2016-May-29 07:33N 37°54' W 122°22'0 0.0
2016-May-29 06:33N 37°54' W 122°22'0 0.0
2016-May-29 05:33N 37°54' W 122°22'0 0.0
2016-May-29 03:33N 37°54' W 122°22'0 0.0
2016-May-29 02:33N 37°54' W 122°22'0 0.0
2016-May-29 01:33N 37°54' W 122°22'0 0.0
2016-May-29 00:33N 37°54' W 122°22'0 0.0
2016-May-28 23:33N 37°54' W 122°22'0 0.0
2016-May-28 22:33N 37°54' W 122°22'0 0.0
2016-May-28 21:33N 37°54' W 122°22'0 0.0
2016-May-28 20:33N 37°54' W 122°22'0 0.0
2016-May-28 17:28N 37°54' W 122°22'0 0.0
2016-May-28 16:33N 37°54' W 122°22'0 0.0
2016-May-28 15:33N 37°54' W 122°22'0 0.0
2016-May-28 14:33N 37°54' W 122°22'0 0.0
2016-May-28 13:34N 37°54' W 122°22'0 0.0
2016-May-28 12:33N 37°54' W 122°22'0 0.0
2016-May-28 11:33N 37°54' W 122°22'0 0.0
2016-May-28 10:32N 37°54' W 122°22'0 0.0
2016-May-28 09:33N 37°54' W 122°22'0 0.0
2016-May-28 08:33N 37°54' W 122°22'0 0.0
2016-May-28 07:33N 37°54' W 122°22'2 0.2
2016-May-27 23:33N 37°54' W 122°25'7 7.1
2016-May-27 22:33N 37°47' W 122°22'2 2.3
2016-May-27 21:33N 37°45' W 122°20'0 0.0
2016-May-27 20:33N 37°45' W 122°20'0 0.0
2016-May-27 19:33N 37°45' W 122°20'0 0.1
2016-May-27 18:22N 37°46' W 122°20'0 0.1
2016-May-27 14:31N 37°46' W 122°20'5 4.6
2016-May-27 13:31N 37°50' W 122°23'5 0.3
2016-May-26 23:16N 37°54' W 122°24'5 5.8
2016-May-26 22:20N 37°49' W 122°22'5 5.9
2016-May-26 21:34N 37°45' W 122°20'2 1.9
2016-May-26 20:33N 37°43' W 122°19'0 0.0
2016-May-26 19:33N 37°43' W 122°19'0 0.0
2016-May-26 18:33N 37°43' W 122°19'0 0.2
2016-May-26 17:30N 37°43' W 122°19'0 0.1
2016-May-26 16:34N 37°43' W 122°19'0 0.0
2016-May-26 15:33N 37°43' W 122°19'4 3.5
2016-May-26 14:34N 37°46' W 122°21'6 5.6
2016-May-26 13:33N 37°52' W 122°24'4 4.0
2016-May-26 12:33N 37°55' W 122°22'1 0.9
2016-May-26 11:33N 37°54' W 122°22'0 0.0
2016-May-26 10:34N 37°54' W 122°22'0 0.0
2016-May-26 09:34N 37°54' W 122°22'0 0.0
2016-May-26 08:34N 37°54' W 122°22'0 0.0
2016-May-26 07:33N 37°54' W 122°22'0 0.0
2016-May-26 06:33N 37°54' W 122°22'0 0.0
2016-May-26 05:33N 37°54' W 122°22'0 0.0
2016-May-26 04:33N 37°54' W 122°22'0 0.0
2016-May-26 03:34N 37°54' W 122°22'0 0.0
2016-May-26 02:33N 37°54' W 122°22'0 0.0
2016-May-26 01:34N 37°54' W 122°22'0 0.1
2016-May-26 00:34N 37°54' W 122°22'2 1.8
2016-May-25 23:33N 37°54' W 122°25'3 3.1
2016-May-25 22:34N 37°51' W 122°23'5 5.1
2016-May-25 21:33N 37°48' W 122°19'1 0.8
2016-May-25 20:33N 37°48' W 122°18'0 0.0
2016-May-25 19:34N 37°48' W 122°18'0 0.0
2016-May-25 18:34N 37°48' W 122°18'0 0.0
2016-May-25 17:34N 37°48' W 122°18'5 5.2
2016-May-25 16:34N 37°51' W 122°23'4 4.3
2016-May-25 15:33N 37°55' W 122°22'0 0.0
2016-May-25 14:33N 37°55' W 122°22'0 0.0
2016-May-25 13:33N 37°55' W 122°22'0 0.0
2016-May-25 12:34N 37°55' W 122°22'0 0.0
2016-May-25 11:34N 37°55' W 122°22'0 0.0
2016-May-25 10:33N 37°55' W 122°22'0 0.0
2016-May-25 09:33N 37°55' W 122°22'0 0.1
2016-May-25 08:33N 37°55' W 122°22'1 0.9
2016-May-25 07:34N 37°54' W 122°22'1 0.9
2016-May-25 06:34N 37°55' W 122°22'0 0.0
2016-May-25 05:33N 37°55' W 122°22'0 0.0
2016-May-25 04:34N 37°55' W 122°22'0 0.4
2016-May-25 03:33N 37°55' W 122°22'1 0.6
2016-May-25 02:33N 37°54' W 122°22'0 0.4
2016-May-25 01:33N 37°54' W 122°22'0 0.0
2016-May-25 00:30N 37°54' W 122°22'0 0.0
2016-May-24 23:30N 37°54' W 122°22'0 0.0
2016-May-24 22:30N 37°54' W 122°22'0 0.0
2016-May-24 21:33N 37°54' W 122°22'0 0.0
2016-May-24 20:33N 37°54' W 122°22'0 0.0
2016-May-24 19:33N 37°54' W 122°22'0 0.0
2016-May-24 18:30N 37°54' W 122°22'2 2.3
2016-May-24 17:33N 37°55' W 122°25'2 2.1
2016-May-24 16:34N 37°55' W 122°22'2 1.9
2016-May-24 15:33N 37°54' W 122°24'1 0.5
2016-May-24 14:34N 37°54' W 122°24'2 1.6
2016-May-24 13:33N 37°55' W 122°22'1 0.7
2016-May-24 12:33N 37°54' W 122°22'0 0.4
2016-May-24 11:34N 37°54' W 122°22'0 0.0
2016-May-24 10:33N 37°54' W 122°22'1 0.8
2016-May-24 09:33N 37°55' W 122°22'5 5.4
2016-May-24 08:33N 37°50' W 122°23'4 4.1
2016-May-24 07:33N 37°46' W 122°21'0 0.0
2016-May-24 06:33N 37°46' W 122°21'0 0.0
2016-May-24 05:33N 37°46' W 122°21'0 0.0
2016-May-24 04:34N 37°46' W 122°21'0 0.1
2016-May-24 03:34N 37°46' W 122°21'0 0.1
2016-May-24 02:34N 37°46' W 122°21'0 0.0
2016-May-24 01:33N 37°46' W 122°21'3 2.8
2016-May-24 00:33N 37°48' W 122°18'0 0.1
2016-May-23 23:33N 37°48' W 122°18'0 0.0
2016-May-23 22:33N 37°48' W 122°18'0 0.0
2016-May-23 21:33N 37°48' W 122°18'0 0.0
2016-May-23 20:33N 37°48' W 122°18'0 0.0
2016-May-23 19:33N 37°48' W 122°18'0 0.0
2016-May-23 18:33N 37°48' W 122°18'0 0.0
2016-May-23 17:34N 37°48' W 122°18'2 2.3
2016-May-23 16:33N 37°48' W 122°21'5 4.5
2016-May-23 15:33N 37°52' W 122°24'3 3.4
2016-May-23 14:33N 37°55' W 122°22'1 0.8
2016-May-23 13:34N 37°54' W 122°22'0 0.0
2016-May-23 12:33N 37°54' W 122°22'0 0.0
2016-May-23 11:34N 37°54' W 122°22'0 0.0
2016-May-23 10:33N 37°54' W 122°22'0 0.0
2016-May-23 09:33N 37°54' W 122°22'0 0.0
2016-May-23 08:33N 37°54' W 122°22'0 0.0
2016-May-23 07:33N 37°54' W 122°22'0 0.0
2016-May-23 06:33N 37°54' W 122°22'0 0.0
2016-May-23 05:33N 37°54' W 122°22'0 0.0
2016-May-23 04:33N 37°54' W 122°22'0 0.0
2016-May-23 03:33N 37°54' W 122°22'1 0.9
2016-May-23 02:33N 37°55' W 122°22'2 2.0
2016-May-23 01:34N 37°54' W 122°24'6 6.2
2016-May-23 00:34N 37°49' W 122°20'0 0.0
2016-May-22 23:31N 37°49' W 122°20'0 0.0
2016-May-22 22:31N 37°49' W 122°20'0 0.0
2016-May-22 21:28N 37°49' W 122°20'0 0.0
2016-May-22 20:31N 37°49' W 122°20'0 0.0
2016-May-22 19:33N 37°49' W 122°20'6 5.7
2016-May-22 18:33N 37°53' W 122°24'2 2.4
2016-May-22 17:33N 37°55' W 122°22'3 2.5
2016-May-22 16:33N 37°56' W 122°25'3 2.5
2016-May-22 15:33N 37°54' W 122°22'2 1.9
2016-May-22 14:33N 37°54' W 122°25'6 6.2
2016-May-22 13:33N 37°48' W 122°21'2 1.8
2016-May-22 12:33N 37°46' W 122°21'0 0.0
2016-May-22 11:33N 37°46' W 122°21'0 0.0
2016-May-22 10:33N 37°46' W 122°21'0 0.1
2016-May-22 09:33N 37°46' W 122°21'0 0.1
2016-May-22 08:33N 37°46' W 122°21'0 0.2
2016-May-22 07:33N 37°46' W 122°21'0 0.0
2016-May-22 06:33N 37°46' W 122°21'0 0.1
2016-May-22 05:33N 37°46' W 122°21'4 4.1
2016-May-22 04:33N 37°50' W 122°23'5 4.6
2016-May-22 03:33N 37°54' W 122°23'1 0.8
2016-May-22 02:33N 37°54' W 122°22'0 0.0
2016-May-22 01:33N 37°54' W 122°22'0 0.0
2016-May-22 00:33N 37°54' W 122°22'0 0.0
2016-May-21 23:33N 37°54' W 122°22'0 0.0
2016-May-21 22:33N 37°54' W 122°22'0 0.0
2016-May-21 21:33N 37°54' W 122°22'1 0.7
2016-May-21 20:33N 37°55' W 122°22'0 0.3
2016-May-21 19:33N 37°54' W 122°22'0 0.0
2016-May-21 18:33N 37°54' W 122°22'0 0.0
2016-May-21 17:33N 37°54' W 122°22'0 0.0
2016-May-21 16:33N 37°54' W 122°22'0 0.0
2016-May-21 15:33N 37°54' W 122°22'0 0.2
2016-May-21 14:34N 37°54' W 122°22'0 0.2
2016-May-21 13:33N 37°54' W 122°22'1 1.4
2016-May-21 12:33N 37°54' W 122°24'1 1.0
2016-May-21 11:33N 37°54' W 122°22'  

Dump ship's entire track history